sensor_id;sensor_type;location;lat;lon;timestamp;P1;durP1;ratioP1;P2;durP2;ratioP2
16401;SDS011;8310;44.626;11.176;2022-09-03T00:02:33;3.10;;;2.90;;
16401;SDS011;8310;44.626;11.176;2022-09-03T00:05:05;3.20;;;2.90;;
16401;SDS011;8310;44.626;11.176;2022-09-03T00:07:39;3.30;;;3.00;;
16401;SDS011;8310;44.626;11.176;2022-09-03T00:10:15;3.40;;;3.10;;
16401;SDS011;8310;44.626;11.176;2022-09-03T00:12:49;3.50;;;3.20;;
16401;SDS011;8310;44.626;11.176;2022-09-03T00:15:20;3.28;;;2.92;;
16401;SDS011;8310;44.626;11.176;2022-09-03T00:17:50;3.42;;;3.22;;
16401;SDS011;8310;44.626;11.176;2022-09-03T00:20:24;3.25;;;3.05;;
16401;SDS011;8310;44.626;11.176;2022-09-03T00:22:56;3.03;;;2.83;;
16401;SDS011;8310;44.626;11.176;2022-09-03T00:25:28;2.97;;;2.78;;
16401;SDS011;8310;44.626;11.176;2022-09-03T00:28:05;3.15;;;2.88;;
16401;SDS011;8310;44.626;11.176;2022-09-03T00:30:39;2.72;;;2.63;;
16401;SDS011;8310;44.626;11.176;2022-09-03T00:33:08;4.00;;;3.42;;
16401;SDS011;8310;44.626;11.176;2022-09-03T00:35:44;3.20;;;3.00;;
16401;SDS011;8310;44.626;11.176;2022-09-03T00:38:16;3.30;;;3.00;;
16401;SDS011;8310;44.626;11.176;2022-09-03T00:40:54;3.10;;;2.90;;
16401;SDS011;8310;44.626;11.176;2022-09-03T00:43:34;3.15;;;2.95;;
16401;SDS011;8310;44.626;11.176;2022-09-03T00:46:14;4.10;;;3.10;;
16401;SDS011;8310;44.626;11.176;2022-09-03T00:48:52;3.22;;;2.92;;
16401;SDS011;8310;44.626;11.176;2022-09-03T00:51:33;3.78;;;3.47;;
16401;SDS011;8310;44.626;11.176;2022-09-03T00:54:09;3.30;;;3.00;;
16401;SDS011;8310;44.626;11.176;2022-09-03T00:56:45;2.90;;;2.75;;
16401;SDS011;8310;44.626;11.176;2022-09-03T00:59:25;5.60;;;3.40;;
16401;SDS011;8310;44.626;11.176;2022-09-03T01:02:05;3.70;;;3.40;;
16401;SDS011;8310;44.626;11.176;2022-09-03T01:04:44;3.30;;;3.10;;
16401;SDS011;8310;44.626;11.176;2022-09-03T01:07:25;3.20;;;3.00;;
16401;SDS011;8310;44.626;11.176;2022-09-03T01:10:06;3.25;;;2.95;;
16401;SDS011;8310;44.626;11.176;2022-09-03T01:12:45;4.75;;;2.85;;
16401;SDS011;8310;44.626;11.176;2022-09-03T01:15:21;3.30;;;3.10;;
16401;SDS011;8310;44.626;11.176;2022-09-03T01:17:58;3.92;;;3.38;;
16401;SDS011;8310;44.626;11.176;2022-09-03T01:20:37;3.33;;;3.13;;
16401;SDS011;8310;44.626;11.176;2022-09-03T01:23:35;3.35;;;3.15;;
16401;SDS011;8310;44.626;11.176;2022-09-03T01:26:22;3.75;;;3.20;;
16401;SDS011;8310;44.626;11.176;2022-09-03T01:29:02;3.70;;;3.40;;
16401;SDS011;8310;44.626;11.176;2022-09-03T01:31:37;3.83;;;3.47;;
16401;SDS011;8310;44.626;11.176;2022-09-03T01:34:19;3.20;;;3.00;;
16401;SDS011;8310;44.626;11.176;2022-09-03T01:36:57;3.50;;;3.20;;
16401;SDS011;8310;44.626;11.176;2022-09-03T01:39:33;4.82;;;3.63;;
16401;SDS011;8310;44.626;11.176;2022-09-03T01:42:13;4.68;;;3.60;;
16401;SDS011;8310;44.626;11.176;2022-09-03T01:48:03;4.47;;;3.47;;
16401;SDS011;8310;44.626;11.176;2022-09-03T01:50:49;5.03;;;3.40;;
16401;SDS011;8310;44.626;11.176;2022-09-03T01:53:31;3.50;;;3.30;;
16401;SDS011;8310;44.626;11.176;2022-09-03T01:56:18;4.65;;;3.53;;
16401;SDS011;8310;44.626;11.176;2022-09-03T01:58:59;3.85;;;3.58;;
16401;SDS011;8310;44.626;11.176;2022-09-03T02:01:33;5.10;;;3.90;;
16401;SDS011;8310;44.626;11.176;2022-09-03T02:04:12;3.78;;;3.53;;
16401;SDS011;8310;44.626;11.176;2022-09-03T02:06:44;4.25;;;3.95;;
16401;SDS011;8310;44.626;11.176;2022-09-03T02:09:13;4.15;;;3.75;;
16401;SDS011;8310;44.626;11.176;2022-09-03T02:11:40;5.13;;;3.90;;
16401;SDS011;8310;44.626;11.176;2022-09-03T02:14:11;4.10;;;3.80;;
16401;SDS011;8310;44.626;11.176;2022-09-03T02:16:41;3.95;;;3.72;;
16401;SDS011;8310;44.626;11.176;2022-09-03T02:19:10;4.05;;;3.75;;
16401;SDS011;8310;44.626;11.176;2022-09-03T02:21:42;4.32;;;3.92;;
16401;SDS011;8310;44.626;11.176;2022-09-03T02:24:13;3.88;;;3.53;;
16401;SDS011;8310;44.626;11.176;2022-09-03T02:26:40;4.90;;;3.92;;
16401;SDS011;8310;44.626;11.176;2022-09-03T02:29:08;4.00;;;3.72;;
16401;SDS011;8310;44.626;11.176;2022-09-03T02:31:40;4.53;;;3.90;;
16401;SDS011;8310;44.626;11.176;2022-09-03T02:34:08;3.90;;;3.60;;
16401;SDS011;8310;44.626;11.176;2022-09-03T02:36:36;4.78;;;3.72;;
16401;SDS011;8310;44.626;11.176;2022-09-03T02:39:06;4.72;;;3.97;;
16401;SDS011;8310;44.626;11.176;2022-09-03T02:41:34;4.10;;;3.70;;
16401;SDS011;8310;44.626;11.176;2022-09-03T02:44:02;3.75;;;3.45;;
16401;SDS011;8310;44.626;11.176;2022-09-03T02:46:33;3.65;;;3.45;;
16401;SDS011;8310;44.626;11.176;2022-09-03T02:49:07;3.80;;;3.53;;
16401;SDS011;8310;44.626;11.176;2022-09-03T02:51:35;4.30;;;3.90;;
16401;SDS011;8310;44.626;11.176;2022-09-03T02:54:03;3.95;;;3.75;;
16401;SDS011;8310;44.626;11.176;2022-09-03T02:56:31;3.65;;;3.35;;
16401;SDS011;8310;44.626;11.176;2022-09-03T02:58:59;4.05;;;3.55;;
16401;SDS011;8310;44.626;11.176;2022-09-03T03:01:27;3.88;;;3.63;;
16401;SDS011;8310;44.626;11.176;2022-09-03T03:03:55;4.47;;;4.07;;
16401;SDS011;8310;44.626;11.176;2022-09-03T03:06:24;6.57;;;4.22;;
16401;SDS011;8310;44.626;11.176;2022-09-03T03:08:52;4.68;;;4.07;;
16401;SDS011;8310;44.626;11.176;2022-09-03T03:11:21;6.35;;;3.90;;
16401;SDS011;8310;44.626;11.176;2022-09-03T03:13:51;4.15;;;3.55;;
16401;SDS011;8310;44.626;11.176;2022-09-03T03:16:19;4.45;;;3.67;;
16401;SDS011;8310;44.626;11.176;2022-09-03T03:18:46;3.42;;;3.20;;
16401;SDS011;8310;44.626;11.176;2022-09-03T03:21:15;5.85;;;3.50;;
16401;SDS011;8310;44.626;11.176;2022-09-03T03:23:45;11.60;;;4.18;;
16401;SDS011;8310;44.626;11.176;2022-09-03T03:26:14;3.70;;;3.40;;
16401;SDS011;8310;44.626;11.176;2022-09-03T03:28:43;4.50;;;3.40;;
16401;SDS011;8310;44.626;11.176;2022-09-03T03:31:11;3.90;;;3.70;;
16401;SDS011;8310;44.626;11.176;2022-09-03T03:33:40;4.07;;;3.78;;
16401;SDS011;8310;44.626;11.176;2022-09-03T03:36:09;5.45;;;4.55;;
16401;SDS011;8310;44.626;11.176;2022-09-03T03:38:38;4.10;;;3.80;;
16401;SDS011;8310;44.626;11.176;2022-09-03T03:41:09;4.60;;;4.20;;
16401;SDS011;8310;44.626;11.176;2022-09-03T03:43:38;3.92;;;3.72;;
16401;SDS011;8310;44.626;11.176;2022-09-03T03:46:06;4.10;;;3.90;;
16401;SDS011;8310;44.626;11.176;2022-09-03T03:48:34;4.20;;;3.90;;
16401;SDS011;8310;44.626;11.176;2022-09-03T03:51:02;4.80;;;4.50;;
16401;SDS011;8310;44.626;11.176;2022-09-03T03:53:31;5.10;;;4.70;;
16401;SDS011;8310;44.626;11.176;2022-09-03T03:56:00;6.20;;;5.60;;
16401;SDS011;8310;44.626;11.176;2022-09-03T03:58:30;6.43;;;5.30;;
16401;SDS011;8310;44.626;11.176;2022-09-03T04:01:03;5.82;;;4.82;;
16401;SDS011;8310;44.626;11.176;2022-09-03T04:03:31;6.22;;;5.72;;
16401;SDS011;8310;44.626;11.176;2022-09-03T04:05:59;6.72;;;6.13;;
16401;SDS011;8310;44.626;11.176;2022-09-03T04:08:26;6.20;;;5.53;;
16401;SDS011;8310;44.626;11.176;2022-09-03T04:10:58;6.07;;;5.57;;
16401;SDS011;8310;44.626;11.176;2022-09-03T04:13:27;6.30;;;5.70;;
16401;SDS011;8310;44.626;11.176;2022-09-03T04:16:00;6.35;;;5.85;;
16401;SDS011;8310;44.626;11.176;2022-09-03T04:18:29;6.68;;;6.07;;
16401;SDS011;8310;44.626;11.176;2022-09-03T04:21:00;7.10;;;6.45;;
16401;SDS011;8310;44.626;11.176;2022-09-03T04:23:29;6.10;;;5.70;;
16401;SDS011;8310;44.626;11.176;2022-09-03T04:25:58;6.97;;;6.38;;
16401;SDS011;8310;44.626;11.176;2022-09-03T04:28:26;6.25;;;5.72;;
16401;SDS011;8310;44.626;11.176;2022-09-03T04:30:58;5.68;;;5.30;;
16401;SDS011;8310;44.626;11.176;2022-09-03T04:33:27;6.32;;;5.70;;
16401;SDS011;8310;44.626;11.176;2022-09-03T04:36:00;6.38;;;5.88;;
16401;SDS011;8310;44.626;11.176;2022-09-03T04:38:30;6.40;;;5.80;;
16401;SDS011;8310;44.626;11.176;2022-09-03T04:40:57;6.45;;;5.97;;
16401;SDS011;8310;44.626;11.176;2022-09-03T04:43:31;6.22;;;5.72;;
16401;SDS011;8310;44.626;11.176;2022-09-03T04:46:00;6.20;;;5.80;;
16401;SDS011;8310;44.626;11.176;2022-09-03T04:48:30;11.25;;;6.15;;
16401;SDS011;8310;44.626;11.176;2022-09-03T04:51:00;6.68;;;6.07;;
16401;SDS011;8310;44.626;11.176;2022-09-03T04:53:30;6.50;;;5.95;;
16401;SDS011;8310;44.626;11.176;2022-09-03T04:55:58;6.55;;;5.95;;
16401;SDS011;8310;44.626;11.176;2022-09-03T04:58:27;6.55;;;5.93;;
16401;SDS011;8310;44.626;11.176;2022-09-03T05:00:54;7.13;;;6.43;;
16401;SDS011;8310;44.626;11.176;2022-09-03T05:03:23;6.90;;;6.40;;
16401;SDS011;8310;44.626;11.176;2022-09-03T05:05:52;6.68;;;6.07;;
16401;SDS011;8310;44.626;11.176;2022-09-03T05:08:20;6.05;;;5.45;;
16401;SDS011;8310;44.626;11.176;2022-09-03T05:10:48;6.70;;;6.13;;
16401;SDS011;8310;44.626;11.176;2022-09-03T05:13:15;6.50;;;6.00;;
16401;SDS011;8310;44.626;11.176;2022-09-03T05:15:42;6.57;;;5.97;;
16401;SDS011;8310;44.626;11.176;2022-09-03T05:18:10;6.50;;;6.05;;
16401;SDS011;8310;44.626;11.176;2022-09-03T05:20:39;7.53;;;6.55;;
16401;SDS011;8310;44.626;11.176;2022-09-03T05:23:07;7.25;;;6.45;;
16401;SDS011;8310;44.626;11.176;2022-09-03T05:25:35;7.32;;;6.68;;
16401;SDS011;8310;44.626;11.176;2022-09-03T05:28:03;7.45;;;6.82;;
16401;SDS011;8310;44.626;11.176;2022-09-03T05:30:31;7.00;;;6.38;;
16401;SDS011;8310;44.626;11.176;2022-09-03T05:33:00;6.93;;;6.32;;
16401;SDS011;8310;44.626;11.176;2022-09-03T05:35:30;7.60;;;6.88;;
16401;SDS011;8310;44.626;11.176;2022-09-03T05:38:00;8.50;;;7.70;;
16401;SDS011;8310;44.626;11.176;2022-09-03T05:40:27;7.32;;;6.72;;
16401;SDS011;8310;44.626;11.176;2022-09-03T05:42:55;7.75;;;6.93;;
16401;SDS011;8310;44.626;11.176;2022-09-03T05:45:24;7.57;;;6.95;;
16401;SDS011;8310;44.626;11.176;2022-09-03T05:47:53;7.30;;;6.70;;
16401;SDS011;8310;44.626;11.176;2022-09-03T05:50:21;7.32;;;6.60;;
16401;SDS011;8310;44.626;11.176;2022-09-03T05:52:48;7.13;;;6.53;;
16401;SDS011;8310;44.626;11.176;2022-09-03T05:55:18;7.57;;;6.82;;
16401;SDS011;8310;44.626;11.176;2022-09-03T05:57:50;7.20;;;6.70;;
16401;SDS011;8310;44.626;11.176;2022-09-03T06:00:18;7.65;;;7.05;;
16401;SDS011;8310;44.626;11.176;2022-09-03T06:02:48;7.13;;;6.63;;
16401;SDS011;8310;44.626;11.176;2022-09-03T06:05:17;7.30;;;6.72;;
16401;SDS011;8310;44.626;11.176;2022-09-03T06:07:45;7.90;;;7.30;;
16401;SDS011;8310;44.626;11.176;2022-09-03T06:10:13;8.00;;;7.28;;
16401;SDS011;8310;44.626;11.176;2022-09-03T06:12:43;9.05;;;8.30;;
16401;SDS011;8310;44.626;11.176;2022-09-03T06:15:14;9.73;;;8.95;;
16401;SDS011;8310;44.626;11.176;2022-09-03T06:17:42;8.95;;;8.25;;
16401;SDS011;8310;44.626;11.176;2022-09-03T06:20:10;10.00;;;9.00;;
16401;SDS011;8310;44.626;11.176;2022-09-03T06:22:37;9.48;;;8.77;;
16401;SDS011;8310;44.626;11.176;2022-09-03T06:25:05;9.85;;;9.07;;
16401;SDS011;8310;44.626;11.176;2022-09-03T06:27:36;10.15;;;9.38;;
16401;SDS011;8310;44.626;11.176;2022-09-03T06:30:06;10.50;;;9.70;;
16401;SDS011;8310;44.626;11.176;2022-09-03T06:32:42;11.05;;;9.88;;
16401;SDS011;8310;44.626;11.176;2022-09-03T06:35:10;10.98;;;9.68;;
16401;SDS011;8310;44.626;11.176;2022-09-03T06:37:41;9.88;;;9.05;;
16401;SDS011;8310;44.626;11.176;2022-09-03T06:40:09;16.50;;;10.68;;
16401;SDS011;8310;44.626;11.176;2022-09-03T06:42:38;10.30;;;9.40;;
16401;SDS011;8310;44.626;11.176;2022-09-03T06:45:08;9.43;;;8.63;;
16401;SDS011;8310;44.626;11.176;2022-09-03T06:47:36;10.35;;;9.27;;
16401;SDS011;8310;44.626;11.176;2022-09-03T06:50:04;10.15;;;9.45;;
16401;SDS011;8310;44.626;11.176;2022-09-03T06:52:38;9.88;;;9.18;;
16401;SDS011;8310;44.626;11.176;2022-09-03T06:55:07;9.73;;;8.93;;
16401;SDS011;8310;44.626;11.176;2022-09-03T06:57:34;10.07;;;9.27;;
16401;SDS011;8310;44.626;11.176;2022-09-03T07:00:02;9.65;;;8.93;;
16401;SDS011;8310;44.626;11.176;2022-09-03T07:02:32;9.30;;;8.60;;
16401;SDS011;8310;44.626;11.176;2022-09-03T07:05:00;10.10;;;9.15;;
16401;SDS011;8310;44.626;11.176;2022-09-03T07:07:28;10.23;;;9.32;;
16401;SDS011;8310;44.626;11.176;2022-09-03T07:09:55;10.05;;;9.18;;
16401;SDS011;8310;44.626;11.176;2022-09-03T07:12:26;8.50;;;7.90;;
16401;SDS011;8310;44.626;11.176;2022-09-03T07:14:53;9.20;;;8.32;;
16401;SDS011;8310;44.626;11.176;2022-09-03T07:17:24;9.65;;;8.70;;
16401;SDS011;8310;44.626;11.176;2022-09-03T07:19:53;10.00;;;9.25;;
16401;SDS011;8310;44.626;11.176;2022-09-03T07:22:20;10.27;;;9.40;;
16401;SDS011;8310;44.626;11.176;2022-09-03T07:24:48;9.70;;;8.85;;
16401;SDS011;8310;44.626;11.176;2022-09-03T07:27:16;10.40;;;9.60;;
16401;SDS011;8310;44.626;11.176;2022-09-03T07:29:44;10.18;;;9.45;;
16401;SDS011;8310;44.626;11.176;2022-09-03T07:32:11;9.75;;;8.90;;
16401;SDS011;8310;44.626;11.176;2022-09-03T07:34:39;9.82;;;9.00;;
16401;SDS011;8310;44.626;11.176;2022-09-03T07:37:09;10.32;;;9.48;;
16401;SDS011;8310;44.626;11.176;2022-09-03T07:39:37;10.68;;;9.68;;
16401;SDS011;8310;44.626;11.176;2022-09-03T07:42:05;11.18;;;10.25;;
16401;SDS011;8310;44.626;11.176;2022-09-03T07:44:35;11.05;;;10.15;;
16401;SDS011;8310;44.626;11.176;2022-09-03T07:47:03;10.70;;;9.80;;
16401;SDS011;8310;44.626;11.176;2022-09-03T07:49:31;11.55;;;9.40;;
16401;SDS011;8310;44.626;11.176;2022-09-03T07:51:58;10.40;;;9.50;;
16401;SDS011;8310;44.626;11.176;2022-09-03T07:54:28;9.50;;;8.70;;
16401;SDS011;8310;44.626;11.176;2022-09-03T07:56:55;9.88;;;9.07;;
16401;SDS011;8310;44.626;11.176;2022-09-03T07:59:23;11.00;;;9.90;;
16401;SDS011;8310;44.626;11.176;2022-09-03T08:01:55;9.55;;;8.75;;
16401;SDS011;8310;44.626;11.176;2022-09-03T08:04:25;10.60;;;9.60;;
16401;SDS011;8310;44.626;11.176;2022-09-03T08:06:52;9.27;;;8.57;;
16401;SDS011;8310;44.626;11.176;2022-09-03T08:09:21;8.77;;;8.13;;
16401;SDS011;8310;44.626;11.176;2022-09-03T08:11:50;9.73;;;8.85;;
16401;SDS011;8310;44.626;11.176;2022-09-03T08:14:18;8.60;;;8.00;;
16401;SDS011;8310;44.626;11.176;2022-09-03T08:16:46;9.88;;;8.70;;
16401;SDS011;8310;44.626;11.176;2022-09-03T08:19:14;10.13;;;9.02;;
16401;SDS011;8310;44.626;11.176;2022-09-03T08:21:42;8.88;;;8.18;;
16401;SDS011;8310;44.626;11.176;2022-09-03T08:24:13;7.15;;;6.65;;
16401;SDS011;8310;44.626;11.176;2022-09-03T08:26:42;7.63;;;7.00;;
16401;SDS011;8310;44.626;11.176;2022-09-03T08:29:11;7.45;;;6.65;;
16401;SDS011;8310;44.626;11.176;2022-09-03T08:31:39;7.05;;;6.53;;
16401;SDS011;8310;44.626;11.176;2022-09-03T08:34:08;6.70;;;6.20;;
16401;SDS011;8310;44.626;11.176;2022-09-03T08:36:36;7.85;;;7.28;;
16401;SDS011;8310;44.626;11.176;2022-09-03T08:39:05;6.82;;;6.30;;
16401;SDS011;8310;44.626;11.176;2022-09-03T08:41:38;8.00;;;7.22;;
16401;SDS011;8310;44.626;11.176;2022-09-03T08:44:19;6.47;;;5.88;;
16401;SDS011;8310;44.626;11.176;2022-09-03T08:46:52;7.18;;;6.68;;
16401;SDS011;8310;44.626;11.176;2022-09-03T08:49:25;7.47;;;6.82;;
16401;SDS011;8310;44.626;11.176;2022-09-03T08:51:59;6.75;;;6.25;;
16401;SDS011;8310;44.626;11.176;2022-09-03T08:54:29;5.63;;;5.13;;
16401;SDS011;8310;44.626;11.176;2022-09-03T08:56:59;5.43;;;4.93;;
16401;SDS011;8310;44.626;11.176;2022-09-03T08:59:30;4.82;;;4.45;;
16401;SDS011;8310;44.626;11.176;2022-09-03T09:01:59;4.90;;;4.50;;
16401;SDS011;8310;44.626;11.176;2022-09-03T09:04:38;5.45;;;4.95;;
16401;SDS011;8310;44.626;11.176;2022-09-03T09:07:20;5.40;;;5.00;;
16401;SDS011;8310;44.626;11.176;2022-09-03T09:09:54;5.40;;;4.78;;
16401;SDS011;8310;44.626;11.176;2022-09-03T09:12:32;4.95;;;4.50;;
16401;SDS011;8310;44.626;11.176;2022-09-03T09:15:10;4.80;;;4.50;;
16401;SDS011;8310;44.626;11.176;2022-09-03T09:17:46;4.78;;;4.38;;
16401;SDS011;8310;44.626;11.176;2022-09-03T09:20:25;4.45;;;3.92;;
16401;SDS011;8310;44.626;11.176;2022-09-03T09:23:02;5.50;;;4.72;;
16401;SDS011;8310;44.626;11.176;2022-09-03T09:25:32;6.70;;;5.70;;
16401;SDS011;8310;44.626;11.176;2022-09-03T09:28:12;8.13;;;4.70;;
16401;SDS011;8310;44.626;11.176;2022-09-03T09:30:47;6.38;;;4.75;;
16401;SDS011;8310;44.626;11.176;2022-09-03T09:33:20;4.70;;;4.30;;
16401;SDS011;8310;44.626;11.176;2022-09-03T09:35:49;5.35;;;4.85;;
16401;SDS011;8310;44.626;11.176;2022-09-03T09:38:26;4.80;;;3.72;;
16401;SDS011;8310;44.626;11.176;2022-09-03T09:40:54;5.47;;;4.93;;
16401;SDS011;8310;44.626;11.176;2022-09-03T09:43:22;4.72;;;4.30;;
16401;SDS011;8310;44.626;11.176;2022-09-03T09:45:52;4.68;;;4.25;;
16401;SDS011;8310;44.626;11.176;2022-09-03T09:48:26;4.47;;;4.18;;
16401;SDS011;8310;44.626;11.176;2022-09-03T09:51:03;4.50;;;4.10;;
16401;SDS011;8310;44.626;11.176;2022-09-03T09:53:32;4.40;;;4.00;;
16401;SDS011;8310;44.626;11.176;2022-09-03T09:56:31;4.35;;;4.10;;
16401;SDS011;8310;44.626;11.176;2022-09-03T09:59:12;4.93;;;4.57;;
16401;SDS011;8310;44.626;11.176;2022-09-03T10:02:01;4.00;;;3.80;;
16401;SDS011;8310;44.626;11.176;2022-09-03T10:04:35;4.07;;;3.78;;
16401;SDS011;8310;44.626;11.176;2022-09-03T10:07:04;4.63;;;4.30;;
16401;SDS011;8310;44.626;11.176;2022-09-03T10:10:02;4.20;;;3.60;;
16401;SDS011;8310;44.626;11.176;2022-09-03T10:12:35;4.40;;;4.10;;
16401;SDS011;8310;44.626;11.176;2022-09-03T10:15:14;4.68;;;4.03;;
16401;SDS011;8310;44.626;11.176;2022-09-03T10:17:54;7.32;;;5.10;;
16401;SDS011;8310;44.626;11.176;2022-09-03T10:20:32;4.38;;;4.07;;
16401;SDS011;8310;44.626;11.176;2022-09-03T10:23:09;4.13;;;3.92;;
16401;SDS011;8310;44.626;11.176;2022-09-03T10:25:51;4.05;;;3.78;;
16401;SDS011;8310;44.626;11.176;2022-09-03T10:28:31;5.25;;;4.20;;
16401;SDS011;8310;44.626;11.176;2022-09-03T10:31:06;4.38;;;4.07;;
16401;SDS011;8310;44.626;11.176;2022-09-03T10:33:47;4.57;;;4.28;;
16401;SDS011;8310;44.626;11.176;2022-09-03T10:36:17;4.50;;;4.20;;
16401;SDS011;8310;44.626;11.176;2022-09-03T10:38:52;4.63;;;4.22;;
16401;SDS011;8310;44.626;11.176;2022-09-03T10:41:32;4.03;;;3.83;;
16401;SDS011;8310;44.626;11.176;2022-09-03T10:44:13;4.15;;;3.85;;
16401;SDS011;8310;44.626;11.176;2022-09-03T10:47:02;4.90;;;4.50;;
16401;SDS011;8310;44.626;11.176;2022-09-03T10:49:56;4.45;;;4.15;;
16401;SDS011;8310;44.626;11.176;2022-09-03T10:52:29;4.13;;;3.72;;
16401;SDS011;8310;44.626;11.176;2022-09-03T10:55:12;4.35;;;3.90;;
16401;SDS011;8310;44.626;11.176;2022-09-03T10:57:47;5.47;;;3.55;;
16401;SDS011;8310;44.626;11.176;2022-09-03T11:00:17;4.90;;;3.90;;
16401;SDS011;8310;44.626;11.176;2022-09-03T11:02:56;4.70;;;4.03;;
16401;SDS011;8310;44.626;11.176;2022-09-03T11:05:47;4.47;;;3.80;;
16401;SDS011;8310;44.626;11.176;2022-09-03T11:08:29;4.13;;;3.83;;
16401;SDS011;8310;44.626;11.176;2022-09-03T11:11:06;4.30;;;3.90;;
16401;SDS011;8310;44.626;11.176;2022-09-03T11:13:39;4.35;;;3.83;;
16401;SDS011;8310;44.626;11.176;2022-09-03T11:16:12;4.93;;;3.95;;
16401;SDS011;8310;44.626;11.176;2022-09-03T11:18:47;4.25;;;3.90;;
16401;SDS011;8310;44.626;11.176;2022-09-03T11:21:19;4.30;;;3.92;;
16401;SDS011;8310;44.626;11.176;2022-09-03T11:23:51;4.40;;;4.00;;
16401;SDS011;8310;44.626;11.176;2022-09-03T11:26:28;4.50;;;3.95;;
16401;SDS011;8310;44.626;11.176;2022-09-03T11:29:03;4.70;;;4.30;;
16401;SDS011;8310;44.626;11.176;2022-09-03T11:31:48;4.50;;;4.10;;
16401;SDS011;8310;44.626;11.176;2022-09-03T11:34:27;9.15;;;5.20;;
16401;SDS011;8310;44.626;11.176;2022-09-03T11:37:06;4.28;;;3.88;;
16401;SDS011;8310;44.626;11.176;2022-09-03T11:39:52;4.88;;;4.15;;
16401;SDS011;8310;44.626;11.176;2022-09-03T11:42:26;4.45;;;4.15;;
16401;SDS011;8310;44.626;11.176;2022-09-03T11:44:58;4.78;;;4.38;;
16401;SDS011;8310;44.626;11.176;2022-09-03T11:47:39;3.90;;;3.70;;
16401;SDS011;8310;44.626;11.176;2022-09-03T11:50:15;4.00;;;3.80;;
16401;SDS011;8310;44.626;11.176;2022-09-03T11:52:49;4.82;;;4.53;;
16401;SDS011;8310;44.626;11.176;2022-09-03T11:55:27;4.03;;;3.72;;
16401;SDS011;8310;44.626;11.176;2022-09-03T11:58:24;4.28;;;3.97;;
16401;SDS011;8310;44.626;11.176;2022-09-03T12:00:55;5.63;;;5.13;;
16401;SDS011;8310;44.626;11.176;2022-09-03T12:03:26;4.50;;;4.10;;
16401;SDS011;8310;44.626;11.176;2022-09-03T12:06:03;4.40;;;4.10;;
16401;SDS011;8310;44.626;11.176;2022-09-03T12:09:03;4.60;;;4.30;;
16401;SDS011;8310;44.626;11.176;2022-09-03T12:11:54;5.10;;;4.57;;
16401;SDS011;8310;44.626;11.176;2022-09-03T12:14:30;4.32;;;4.13;;
16401;SDS011;8310;44.626;11.176;2022-09-03T12:17:07;4.68;;;4.38;;
16401;SDS011;8310;44.626;11.176;2022-09-03T12:19:46;4.30;;;4.00;;
16401;SDS011;8310;44.626;11.176;2022-09-03T12:22:18;4.65;;;4.25;;
16401;SDS011;8310;44.626;11.176;2022-09-03T12:24:49;5.57;;;4.20;;
16401;SDS011;8310;44.626;11.176;2022-09-03T12:27:18;5.05;;;4.65;;
16401;SDS011;8310;44.626;11.176;2022-09-03T12:29:52;4.68;;;4.32;;
16401;SDS011;8310;44.626;11.176;2022-09-03T12:32:24;4.70;;;4.40;;
16401;SDS011;8310;44.626;11.176;2022-09-03T12:34:54;4.57;;;4.28;;
16401;SDS011;8310;44.626;11.176;2022-09-03T12:37:23;4.18;;;3.88;;
16401;SDS011;8310;44.626;11.176;2022-09-03T12:39:53;3.92;;;3.63;;
16401;SDS011;8310;44.626;11.176;2022-09-03T12:42:23;4.72;;;4.15;;
16401;SDS011;8310;44.626;11.176;2022-09-03T12:44:53;4.70;;;4.40;;
16401;SDS011;8310;44.626;11.176;2022-09-03T12:47:22;4.15;;;3.85;;
16401;SDS011;8310;44.626;11.176;2022-09-03T12:49:51;4.20;;;3.90;;
16401;SDS011;8310;44.626;11.176;2022-09-03T12:52:24;4.28;;;3.88;;
16401;SDS011;8310;44.626;11.176;2022-09-03T12:54:56;3.97;;;3.72;;
16401;SDS011;8310;44.626;11.176;2022-09-03T12:57:28;4.50;;;4.13;;
16401;SDS011;8310;44.626;11.176;2022-09-03T13:00:02;3.83;;;3.60;;
16401;SDS011;8310;44.626;11.176;2022-09-03T13:02:35;4.40;;;4.10;;
16401;SDS011;8310;44.626;11.176;2022-09-03T13:05:07;4.00;;;3.70;;
16401;SDS011;8310;44.626;11.176;2022-09-03T13:07:42;3.65;;;3.45;;
16401;SDS011;8310;44.626;11.176;2022-09-03T13:10:22;8.07;;;4.15;;
16401;SDS011;8310;44.626;11.176;2022-09-03T13:12:56;4.47;;;4.13;;
16401;SDS011;8310;44.626;11.176;2022-09-03T13:15:25;4.40;;;4.00;;
16401;SDS011;8310;44.626;11.176;2022-09-03T13:18:02;4.18;;;3.92;;
16401;SDS011;8310;44.626;11.176;2022-09-03T13:20:38;5.10;;;3.83;;
16401;SDS011;8310;44.626;11.176;2022-09-03T13:23:24;4.07;;;3.78;;
16401;SDS011;8310;44.626;11.176;2022-09-03T13:26:03;4.03;;;3.70;;
16401;SDS011;8310;44.626;11.176;2022-09-03T13:28:44;3.88;;;3.58;;
16401;SDS011;8310;44.626;11.176;2022-09-03T13:31:25;4.38;;;3.97;;
16401;SDS011;8310;44.626;11.176;2022-09-03T13:33:59;4.25;;;3.85;;
16401;SDS011;8310;44.626;11.176;2022-09-03T13:36:33;4.10;;;3.72;;
16401;SDS011;8310;44.626;11.176;2022-09-03T13:39:10;4.22;;;3.92;;
16401;SDS011;8310;44.626;11.176;2022-09-03T13:41:49;3.97;;;3.58;;
16401;SDS011;8310;44.626;11.176;2022-09-03T13:44:23;3.78;;;3.53;;
16401;SDS011;8310;44.626;11.176;2022-09-03T13:47:04;4.47;;;4.10;;
16401;SDS011;8310;44.626;11.176;2022-09-03T13:49:39;3.83;;;3.53;;
16401;SDS011;8310;44.626;11.176;2022-09-03T13:52:42;3.50;;;3.30;;
16401;SDS011;8310;44.626;11.176;2022-09-03T13:55:25;3.80;;;3.60;;
16401;SDS011;8310;44.626;11.176;2022-09-03T13:58:01;3.10;;;3.00;;
16401;SDS011;8310;44.626;11.176;2022-09-03T14:00:35;3.55;;;3.35;;
16401;SDS011;8310;44.626;11.176;2022-09-03T14:03:09;3.60;;;3.40;;
16401;SDS011;8310;44.626;11.176;2022-09-03T14:05:46;5.07;;;3.63;;
16401;SDS011;8310;44.626;11.176;2022-09-03T14:08:27;3.50;;;3.20;;
16401;SDS011;8310;44.626;11.176;2022-09-03T14:11:04;3.53;;;3.33;;
16401;SDS011;8310;44.626;11.176;2022-09-03T14:13:49;4.18;;;3.13;;
16401;SDS011;8310;44.626;11.176;2022-09-03T14:16:28;3.33;;;3.00;;
16401;SDS011;8310;44.626;11.176;2022-09-03T14:19:04;3.53;;;3.25;;
16401;SDS011;8310;44.626;11.176;2022-09-03T14:21:38;3.88;;;3.50;;
16401;SDS011;8310;44.626;11.176;2022-09-03T14:24:13;3.88;;;3.67;;
16401;SDS011;8310;44.626;11.176;2022-09-03T14:26:48;3.20;;;3.00;;
16401;SDS011;8310;44.626;11.176;2022-09-03T14:29:22;2.97;;;2.88;;
16401;SDS011;8310;44.626;11.176;2022-09-03T14:31:58;3.70;;;3.40;;
16401;SDS011;8310;44.626;11.176;2022-09-03T14:34:41;3.55;;;3.35;;
16401;SDS011;8310;44.626;11.176;2022-09-03T14:37:19;3.83;;;3.10;;
16401;SDS011;8310;44.626;11.176;2022-09-03T14:40:02;3.42;;;3.22;;
16401;SDS011;8310;44.626;11.176;2022-09-03T14:43:00;4.80;;;3.40;;
16401;SDS011;8310;44.626;11.176;2022-09-03T14:45:52;3.42;;;3.13;;
16401;SDS011;8310;44.626;11.176;2022-09-03T14:48:34;4.03;;;3.80;;
16401;SDS011;8310;44.626;11.176;2022-09-03T14:51:20;2.75;;;2.60;;
16401;SDS011;8310;44.626;11.176;2022-09-03T14:54:11;3.72;;;3.40;;
16401;SDS011;8310;44.626;11.176;2022-09-03T14:57:03;3.28;;;3.08;;
16401;SDS011;8310;44.626;11.176;2022-09-03T15:00:01;3.85;;;3.28;;
16401;SDS011;8310;44.626;11.176;2022-09-03T15:02:45;3.20;;;3.00;;
16401;SDS011;8310;44.626;11.176;2022-09-03T15:05:40;3.65;;;3.08;;
16401;SDS011;8310;44.626;11.176;2022-09-03T15:08:18;2.72;;;2.53;;
16401;SDS011;8310;44.626;11.176;2022-09-03T15:11:00;3.35;;;2.80;;
16401;SDS011;8310;44.626;11.176;2022-09-03T15:13:31;3.33;;;3.13;;
16401;SDS011;8310;44.626;11.176;2022-09-03T15:16:07;3.08;;;2.88;;
16401;SDS011;8310;44.626;11.176;2022-09-03T15:18:53;2.85;;;2.75;;
16401;SDS011;8310;44.626;11.176;2022-09-03T15:21:38;3.40;;;3.20;;
16401;SDS011;8310;44.626;11.176;2022-09-03T15:24:23;3.60;;;3.22;;
16401;SDS011;8310;44.626;11.176;2022-09-03T15:27:05;3.45;;;3.15;;
16401;SDS011;8310;44.626;11.176;2022-09-03T15:29:47;7.50;;;4.20;;